createdAt,value
2022-10-11T00:00:33.744Z,5.80
2022-10-11T00:03:20.665Z,8.30
2022-10-11T00:05:48.306Z,6.30
2022-10-11T00:09:14.766Z,6.33
2022-10-11T00:12:41.536Z,6.03
2022-10-11T00:16:08.507Z,5.60
2022-10-11T00:18:35.950Z,5.63
2022-10-11T00:21:11.810Z,6.30
2022-10-11T00:23:39.683Z,5.43
2022-10-11T00:26:09.490Z,6.23
2022-10-11T00:28:37.794Z,5.33
2022-10-11T00:31:10.714Z,5.47
2022-10-11T00:36:05.094Z,5.87
2022-10-11T00:38:32.864Z,5.60
2022-10-11T00:41:00.472Z,4.67
2022-10-11T00:43:30.833Z,4.80
2022-10-11T00:45:58.104Z,6.57
2022-10-11T00:48:42.379Z,5.43
2022-10-11T00:51:26.452Z,5.10
2022-10-11T00:53:54.070Z,4.93
2022-10-11T00:56:31.434Z,5.33
2022-10-11T00:59:00.362Z,5.03
2022-10-11T01:01:27.302Z,4.60
2022-10-11T01:03:54.886Z,5.00
2022-10-11T01:06:21.615Z,5.47
2022-10-11T01:08:50.091Z,4.47
2022-10-11T01:11:21.792Z,4.00
2022-10-11T01:13:51.323Z,4.00
2022-10-11T01:16:36.343Z,3.90
2022-10-11T01:19:16.413Z,4.37
2022-10-11T01:22:08.662Z,4.30
2022-10-11T01:25:11.032Z,3.93
2022-10-11T01:28:02.752Z,4.53
2022-10-11T01:30:35.134Z,3.87
2022-10-11T01:33:35.328Z,4.20
2022-10-11T01:36:27.967Z,4.53
2022-10-11T01:39:19.234Z,3.65
2022-10-11T01:41:56.149Z,3.40
2022-10-11T01:44:26.965Z,4.10
2022-10-11T01:46:54.084Z,4.67
2022-10-11T01:49:21.218Z,3.90
2022-10-11T01:51:58.404Z,3.53
2022-10-11T01:55:08.085Z,3.93
2022-10-11T01:58:03.517Z,3.73
2022-10-11T02:01:05.073Z,3.40
2022-10-11T02:03:43.644Z,4.07
2022-10-11T02:07:13.103Z,3.77
2022-10-11T02:14:01.600Z,4.27
2022-10-11T02:17:31.160Z,3.00
2022-10-11T02:20:19.138Z,3.07
2022-10-11T02:23:48.228Z,2.63
2022-10-11T02:27:14.921Z,2.70
2022-10-11T02:29:46.563Z,2.77
2022-10-11T02:32:16.133Z,4.07
2022-10-11T02:35:48.692Z,3.73
2022-10-11T02:38:22.422Z,3.83
2022-10-11T02:40:58.217Z,3.40
2022-10-11T02:44:30.909Z,3.50
2022-10-11T02:46:59.648Z,2.50
2022-10-11T02:49:29.106Z,2.70
2022-10-11T02:51:57.498Z,3.70
2022-10-11T02:54:25.584Z,3.47
2022-10-11T02:57:40.372Z,2.97
2022-10-11T03:00:09.117Z,2.80
2022-10-11T03:03:24.016Z,2.63
2022-10-11T03:05:50.787Z,2.30
2022-10-11T03:08:17.840Z,3.00
2022-10-11T03:10:44.748Z,2.43
2022-10-11T03:13:14.889Z,2.50
2022-10-11T03:15:50.354Z,2.67
2022-10-11T03:18:27.333Z,2.72
2022-10-11T03:20:54.489Z,2.70
2022-10-11T03:23:21.172Z,3.93
2022-10-11T03:25:47.791Z,2.53
2022-10-11T03:28:14.868Z,3.30
2022-10-11T03:30:41.521Z,2.20
2022-10-11T03:37:06.392Z,2.30
2022-10-11T03:39:33.273Z,3.40
2022-10-11T03:41:59.977Z,2.20
2022-10-11T03:44:26.763Z,3.57
2022-10-11T03:47:10.199Z,2.37
2022-10-11T03:50:36.880Z,2.63
2022-10-11T03:53:04.312Z,3.60
2022-10-11T03:55:30.947Z,2.33
2022-10-11T04:01:52.295Z,2.78
2022-10-11T04:04:18.973Z,1.73
2022-10-11T04:06:45.735Z,2.73
2022-10-11T04:10:12.410Z,3.40
2022-10-11T04:12:56.386Z,4.03
2022-10-11T04:20:16.773Z,2.97
2022-10-11T04:23:43.296Z,2.73
2022-10-11T04:31:00.870Z,2.43
2022-10-11T04:33:47.581Z,3.23
2022-10-11T04:36:14.530Z,3.03
2022-10-11T04:38:41.326Z,3.30
2022-10-11T04:42:10.956Z,2.80
2022-10-11T04:45:37.409Z,3.63
2022-10-11T04:49:04.136Z,4.33
2022-10-11T04:51:31.044Z,2.77
2022-10-11T04:53:57.686Z,2.63
2022-10-11T05:00:17.657Z,2.30
2022-10-11T05:03:44.159Z,2.10
2022-10-11T05:07:10.893Z,3.67
2022-10-11T05:14:18.814Z,2.50
2022-10-11T05:17:45.242Z,2.30
2022-10-11T05:21:11.889Z,2.20
2022-10-11T05:23:47.622Z,2.37
2022-10-11T05:26:15.325Z,2.60
2022-10-11T05:28:42.119Z,2.57
2022-10-11T05:31:08.867Z,3.63
2022-10-11T05:33:36.154Z,2.77
2022-10-11T05:36:03.723Z,2.50
2022-10-11T05:38:30.833Z,2.67
2022-10-11T05:42:00.385Z,2.70
2022-10-11T05:45:00.319Z,2.13
2022-10-11T05:47:27.177Z,2.40
2022-10-11T05:49:53.804Z,2.47
2022-10-11T05:52:21.637Z,2.67
2022-10-11T05:54:49.135Z,3.20
2022-10-11T05:57:15.998Z,2.50
2022-10-11T05:59:42.888Z,3.73
2022-10-11T06:02:13.333Z,3.30
2022-10-11T06:04:40.349Z,3.27
2022-10-11T06:07:07.258Z,3.50
2022-10-11T06:09:36.902Z,2.00
2022-10-11T06:12:03.909Z,2.10
2022-10-11T06:14:30.654Z,1.50
2022-10-11T06:16:57.498Z,1.97
2022-10-11T06:19:24.240Z,1.47
2022-10-11T06:21:51.603Z,2.07
2022-10-11T06:24:18.531Z,1.57
2022-10-11T06:26:45.188Z,1.90
2022-10-11T06:29:11.884Z,2.13
2022-10-11T06:31:38.722Z,1.57
2022-10-11T06:35:05.152Z,1.50
2022-10-11T06:38:31.863Z,1.70
2022-10-11T06:41:42.412Z,1.70
2022-10-11T06:45:12.925Z,1.67
2022-10-11T06:52:23.323Z,2.00
2022-10-11T06:55:49.746Z,1.40
2022-10-11T07:03:08.854Z,2.03
2022-10-11T07:06:35.285Z,2.10
2022-10-11T07:13:53.252Z,1.77
2022-10-11T07:17:19.683Z,1.83
2022-10-11T07:20:46.469Z,2.63
2022-10-11T07:23:13.203Z,2.30
2022-10-11T07:25:40.044Z,3.20
2022-10-11T07:28:07.611Z,3.03
2022-10-11T07:30:35.856Z,2.37
2022-10-11T07:33:02.539Z,2.67
2022-10-11T07:35:29.456Z,2.30
2022-10-11T07:37:56.523Z,3.10
2022-10-11T07:40:23.273Z,4.27
2022-10-11T07:42:50.114Z,1.70
2022-10-11T07:45:16.910Z,1.80
2022-10-11T07:47:46.516Z,2.37
2022-10-11T07:50:13.970Z,2.23
2022-10-11T07:52:40.711Z,1.93
2022-10-11T07:55:07.906Z,1.87
2022-10-11T07:57:34.721Z,1.90
2022-10-11T08:00:01.468Z,1.70
2022-10-11T08:02:28.701Z,1.90
2022-10-11T08:04:55.517Z,1.90
2022-10-11T08:07:22.253Z,1.53
2022-10-11T08:09:49.150Z,1.53
2022-10-11T08:12:16.103Z,2.10
2022-10-11T08:15:42.531Z,1.97
2022-10-11T08:22:01.778Z,1.70
2022-10-11T08:24:28.489Z,2.63
2022-10-11T08:26:55.776Z,1.90
2022-10-11T08:30:22.558Z,2.23
2022-10-11T08:33:49.101Z,1.70
2022-10-11T08:40:15.274Z,1.70
2022-10-11T08:42:46.765Z,1.67
2022-10-11T08:45:35.666Z,2.50
2022-10-11T08:48:34.357Z,2.17
2022-10-11T08:51:03.682Z,2.13
2022-10-11T08:53:45.415Z,2.00
2022-10-11T08:56:16.551Z,1.93
2022-10-11T08:58:51.917Z,1.60
2022-10-11T09:01:23.675Z,1.60
2022-10-11T09:03:51.656Z,1.23
2022-10-11T09:06:29.120Z,2.60
2022-10-11T09:09:22.757Z,2.27
2022-10-11T09:11:58.698Z,1.83
2022-10-11T09:14:46.530Z,2.87
2022-10-11T09:17:52.811Z,1.90
2022-10-11T09:20:30.496Z,3.07
2022-10-11T09:23:05.779Z,1.90
2022-10-11T09:25:44.415Z,1.63
2022-10-11T09:28:15.468Z,1.80
2022-10-11T09:30:48.833Z,3.03
2022-10-11T09:33:41.492Z,2.37
2022-10-11T09:36:20.232Z,2.80
2022-10-11T09:39:05.655Z,1.63
2022-10-11T09:41:47.341Z,2.00
2022-10-11T09:44:23.841Z,1.97
2022-10-11T09:46:52.527Z,2.07
2022-10-11T09:49:22.800Z,1.50
2022-10-11T09:52:02.418Z,2.27
2022-10-11T09:54:52.389Z,1.57
2022-10-11T09:57:22.816Z,1.70
2022-10-11T10:00:00.713Z,2.10
2022-10-11T10:02:29.710Z,1.80
2022-10-11T10:05:11.351Z,1.80
2022-10-11T10:07:41.162Z,1.70
2022-10-11T10:10:28.432Z,1.70
2022-10-11T10:13:01.630Z,1.70
2022-10-11T10:15:36.811Z,1.57
2022-10-11T10:18:06.306Z,1.57
2022-10-11T10:20:36.284Z,1.53
2022-10-11T10:23:20.504Z,2.63
2022-10-11T10:25:51.268Z,1.23
2022-10-11T10:28:25.019Z,1.10
2022-10-11T10:30:54.537Z,1.73
2022-10-11T10:33:35.168Z,1.20
2022-10-11T10:36:17.741Z,1.67
2022-10-11T10:39:09.020Z,1.13
2022-10-11T10:41:36.147Z,1.57
2022-10-11T10:44:03.373Z,2.73
2022-10-11T10:47:21.357Z,1.87
2022-10-11T10:50:03.690Z,1.57
2022-10-11T10:52:39.559Z,1.70
2022-10-11T10:55:12.293Z,1.40
2022-10-11T11:00:31.066Z,2.00
2022-10-11T11:03:02.564Z,1.50
2022-10-11T11:05:48.532Z,1.83
2022-10-11T11:08:18.067Z,2.10
2022-10-11T11:11:21.457Z,2.37
2022-10-11T11:16:38.689Z,1.40
2022-10-11T11:19:15.881Z,1.38
2022-10-11T11:21:53.540Z,1.50
2022-10-11T11:24:23.007Z,2.30
2022-10-11T11:27:11.456Z,1.73
2022-10-11T11:30:04.947Z,1.40
2022-10-11T11:32:31.703Z,1.17
2022-10-11T11:35:21.935Z,1.00
2022-10-11T11:37:58.574Z,1.30
2022-10-11T11:40:37.325Z,1.40
2022-10-11T11:43:28.411Z,1.40
2022-10-11T11:46:06.798Z,1.10
2022-10-11T11:48:33.527Z,0.90
2022-10-11T11:51:09.324Z,1.40
2022-10-11T11:53:48.546Z,1.00
2022-10-11T11:56:42.417Z,1.37
2022-10-11T11:59:36.002Z,1.43
2022-10-11T12:02:22.752Z,1.70
2022-10-11T12:04:51.246Z,1.20
2022-10-11T12:07:22.399Z,1.53
2022-10-11T12:09:53.196Z,1.30
2022-10-11T12:12:28.288Z,1.20
2022-10-11T12:15:04.229Z,1.17
2022-10-11T12:17:32.112Z,2.10
2022-10-11T12:20:25.215Z,1.40
2022-10-11T12:25:28.856Z,1.20
2022-10-11T12:27:57.962Z,1.07
2022-10-11T12:30:42.851Z,1.70
2022-10-11T12:33:31.065Z,1.40
2022-10-11T12:36:07.416Z,1.30
2022-10-11T12:38:38.528Z,1.77
2022-10-11T12:41:13.772Z,1.60
2022-10-11T12:43:49.690Z,2.10
2022-10-11T12:46:28.785Z,1.93
2022-10-11T12:49:17.446Z,1.30
2022-10-11T12:51:56.502Z,1.90
2022-10-11T12:54:41.273Z,1.67
2022-10-11T12:57:52.927Z,1.80
2022-10-11T13:00:29.268Z,1.90
2022-10-11T13:03:17.460Z,2.10
2022-10-11T13:05:50.994Z,2.33
2022-10-11T13:08:29.840Z,1.80
2022-10-11T13:11:01.659Z,1.57
2022-10-11T13:13:37.868Z,2.17
2022-10-11T13:16:17.189Z,1.73
2022-10-11T13:18:46.864Z,1.90
2022-10-11T13:21:27.829Z,1.90
2022-10-11T13:23:58.157Z,2.67
2022-10-11T13:26:27.096Z,2.20
2022-10-11T13:28:54.123Z,1.77
2022-10-11T13:31:23.596Z,2.23
2022-10-11T13:33:54.937Z,1.60
2022-10-11T13:36:24.889Z,1.60
2022-10-11T13:38:58.569Z,2.07
2022-10-11T13:41:28.120Z,1.70
2022-10-11T13:44:00.328Z,2.23
2022-10-11T13:46:29.655Z,1.95
2022-10-11T13:49:01.168Z,1.20
2022-10-11T13:51:34.140Z,1.37
2022-10-11T13:54:13.585Z,1.67
2022-10-11T13:56:51.589Z,1.73
2022-10-11T13:59:23.992Z,2.03
2022-10-11T14:01:57.892Z,1.92
2022-10-11T14:04:29.547Z,1.63
2022-10-11T14:07:02.913Z,1.50
2022-10-11T14:12:46.359Z,1.70
2022-10-11T14:16:24.806Z,2.13
2022-10-11T14:19:00.608Z,2.10
2022-10-11T14:21:50.058Z,1.93
2022-10-11T14:28:49.712Z,1.40
2022-10-11T14:31:16.591Z,2.13
2022-10-11T14:33:43.383Z,2.93
2022-10-11T14:36:50.172Z,2.07
2022-10-11T14:39:20.888Z,2.23
2022-10-11T14:42:49.249Z,2.00
2022-10-11T14:46:15.725Z,2.80
2022-10-11T14:48:55.019Z,2.30
2022-10-11T14:51:29.754Z,1.80
2022-10-11T14:53:57.090Z,2.93
2022-10-11T14:56:23.851Z,2.30
2022-10-11T14:59:53.420Z,2.43
2022-10-11T15:02:39.990Z,2.20
2022-10-11T15:06:06.971Z,1.87
2022-10-11T15:09:33.734Z,1.67
2022-10-11T15:13:00.506Z,1.47
2022-10-11T15:15:30.691Z,2.20
2022-10-11T15:17:59.569Z,2.37
2022-10-11T15:21:06.240Z,2.53
2022-10-11T15:24:32.724Z,1.93
2022-10-11T15:30:54.546Z,2.70
2022-10-11T15:33:21.512Z,2.00
2022-10-11T15:35:48.217Z,2.37
2022-10-11T15:39:20.951Z,2.87
2022-10-11T15:42:47.404Z,2.67
2022-10-11T15:49:19.192Z,2.23
2022-10-11T15:52:45.959Z,2.47
2022-10-11T15:55:12.608Z,2.57
2022-10-11T15:57:39.348Z,2.20
2022-10-11T16:00:06.586Z,2.13
2022-10-11T16:07:17.561Z,2.50
2022-10-11T16:10:44.058Z,2.43
2022-10-11T16:14:11.190Z,1.73
2022-10-11T16:17:37.604Z,2.00
2022-10-11T16:23:58.331Z,1.80
2022-10-11T16:26:24.972Z,3.97
2022-10-11T16:28:51.727Z,2.20
2022-10-11T16:31:21.173Z,2.00
2022-10-11T16:33:48.792Z,3.13
2022-10-11T16:37:15.368Z,2.43
2022-10-11T16:40:41.827Z,1.97
2022-10-11T16:43:09.896Z,3.13
2022-10-11T16:45:36.635Z,2.33
2022-10-11T16:48:03.555Z,3.00
2022-10-11T16:50:31.736Z,3.73
2022-10-11T16:53:00.239Z,2.60
2022-10-11T16:55:26.938Z,3.20
2022-10-11T16:57:53.904Z,2.40
2022-10-11T17:00:20.678Z,2.37
2022-10-11T17:02:47.420Z,3.10
2022-10-11T17:05:14.381Z,2.20
2022-10-11T17:07:41.044Z,2.30
2022-10-11T17:10:08.297Z,2.00
2022-10-11T17:12:37.563Z,3.67
2022-10-11T17:15:05.530Z,2.63
2022-10-11T17:17:32.354Z,2.40
2022-10-11T17:19:59.377Z,3.03
2022-10-11T17:22:26.231Z,3.20
2022-10-11T17:24:52.983Z,2.73
2022-10-11T17:27:19.822Z,2.90
2022-10-11T17:29:46.575Z,3.23
2022-10-11T17:32:13.317Z,2.10
2022-10-11T17:34:40.135Z,2.50
2022-10-11T17:37:08.904Z,2.07
2022-10-11T17:39:35.908Z,2.37
2022-10-11T17:42:07.723Z,3.47
2022-10-11T17:44:35.881Z,3.33
2022-10-11T17:47:02.961Z,3.07
2022-10-11T17:49:30.252Z,2.50
2022-10-11T17:51:56.959Z,2.30
2022-10-11T17:54:24.187Z,2.73
2022-10-11T17:56:51.091Z,2.00
2022-10-11T17:59:21.479Z,1.93
2022-10-11T18:01:50.299Z,2.30
2022-10-11T18:08:10.894Z,2.40
2022-10-11T18:10:38.269Z,3.00
2022-10-11T18:13:06.752Z,2.10
2022-10-11T18:15:34.280Z,2.60
2022-10-11T18:18:01.247Z,2.20
2022-10-11T18:20:28.074Z,1.87
2022-10-11T18:23:54.627Z,2.35
2022-10-11T18:27:21.079Z,2.50
2022-10-11T18:30:47.894Z,3.00
2022-10-11T18:34:14.342Z,3.80
2022-10-11T18:36:41.428Z,1.93
2022-10-11T18:39:27.612Z,2.43
2022-10-11T18:41:54.607Z,2.63
2022-10-11T18:44:21.405Z,3.50
2022-10-11T18:46:48.517Z,2.87
2022-10-11T18:49:15.403Z,2.20
2022-10-11T18:51:42.882Z,2.90
2022-10-11T18:54:14.014Z,2.83
2022-10-11T19:01:34.642Z,2.17
2022-10-11T19:05:01.123Z,2.40
2022-10-11T19:12:20.034Z,2.00
2022-10-11T19:15:46.574Z,2.53
2022-10-11T19:19:13.166Z,2.53
2022-10-11T19:21:40.426Z,2.33
2022-10-11T19:24:07.687Z,2.63
2022-10-11T19:27:37.685Z,2.57
2022-10-11T19:31:04.824Z,3.27
2022-10-11T19:34:31.820Z,2.17
2022-10-11T19:37:00.920Z,2.60
2022-10-11T19:40:29.145Z,3.20
2022-10-11T19:43:58.120Z,2.57
2022-10-11T19:47:24.825Z,2.83
2022-10-11T19:54:34.712Z,5.27
2022-10-11T19:57:01.600Z,4.63
2022-10-11T20:00:28.351Z,3.43
2022-10-11T20:03:54.833Z,2.73
2022-10-11T20:07:21.480Z,3.83
2022-10-11T20:14:30.942Z,4.73
2022-10-11T20:18:09.193Z,3.33
2022-10-11T20:25:27.582Z,3.30
2022-10-11T20:28:56.089Z,2.77
2022-10-11T20:36:15.106Z,4.00
2022-10-11T20:39:41.766Z,9.13
2022-10-11T22:35:48.302Z,1.90
2022-10-11T22:38:17.955Z,1.27
2022-10-11T22:40:45.091Z,1.60
2022-10-11T22:43:20.458Z,1.90
2022-10-11T22:45:47.101Z,2.03
2022-10-11T22:48:13.860Z,1.87
2022-10-11T22:50:41.351Z,1.70
2022-10-11T22:53:08.964Z,1.93
2022-10-11T22:55:36.012Z,3.50
2022-10-11T22:58:02.952Z,1.30
2022-10-11T23:05:11.921Z,1.47
2022-10-11T23:07:38.842Z,1.93
2022-10-11T23:10:06.625Z,2.10
2022-10-11T23:12:34.085Z,1.67
2022-10-11T23:15:00.874Z,1.57
2022-10-11T23:18:27.753Z,1.60
2022-10-11T23:20:54.507Z,1.97
2022-10-11T23:23:21.289Z,1.40
2022-10-11T23:25:48.644Z,1.73
2022-10-11T23:28:17.764Z,1.33
2022-10-11T23:30:44.543Z,1.23
2022-10-11T23:33:11.493Z,1.17
2022-10-11T23:36:38.088Z,1.30
2022-10-11T23:39:41.879Z,1.40
2022-10-11T23:42:08.632Z,0.90
2022-10-11T23:44:35.302Z,2.00
2022-10-11T23:48:01.881Z,1.50
2022-10-11T23:51:28.502Z,1.97
2022-10-11T23:53:55.377Z,2.40
2022-10-11T23:56:22.613Z,1.50
2022-10-11T23:58:49.350Z,1.37
